createdAt,value
2023-04-16T00:00:33.326Z,94350.00
2023-04-16T00:01:33.317Z,94344.00
2023-04-16T00:02:33.455Z,94346.00
2023-04-16T00:03:33.762Z,94352.00
2023-04-16T00:04:33.609Z,94348.00
2023-04-16T00:05:33.553Z,94352.00
2023-04-16T00:06:33.604Z,94352.00
2023-04-16T00:07:33.637Z,94348.00
2023-04-16T00:08:33.709Z,94346.00
2023-04-16T00:09:33.762Z,94350.00
2023-04-16T00:10:33.837Z,94348.00
2023-04-16T00:11:33.910Z,94350.00
2023-04-16T00:12:33.951Z,94350.00
2023-04-16T00:13:33.992Z,94350.00
2023-04-16T00:14:34.053Z,94350.00
2023-04-16T00:15:34.105Z,94352.00
2023-04-16T00:16:34.160Z,94350.00
2023-04-16T00:17:34.193Z,94350.00
2023-04-16T00:18:34.217Z,94356.00
2023-04-16T00:19:34.253Z,94356.00
2023-04-16T00:20:34.287Z,94356.00
2023-04-16T00:21:34.355Z,94356.00
2023-04-16T00:22:34.379Z,94356.00
2023-04-16T00:23:34.418Z,94354.00
2023-04-16T00:24:34.439Z,94356.00
2023-04-16T00:25:34.439Z,94356.00
2023-04-16T00:26:34.482Z,94356.00
2023-04-16T00:27:34.474Z,94352.00
2023-04-16T00:28:34.520Z,94352.00
2023-04-16T00:29:34.521Z,94352.00
2023-04-16T00:30:34.562Z,94350.00
2023-04-16T00:31:34.561Z,94352.00
2023-04-16T00:32:34.626Z,94354.00
2023-04-16T00:33:34.623Z,94354.00
2023-04-16T00:34:34.634Z,94354.00
2023-04-16T00:35:34.690Z,94356.00
2023-04-16T00:36:34.730Z,94354.00
2023-04-16T00:37:34.750Z,94354.00
2023-04-16T00:38:34.793Z,94356.00
2023-04-16T00:39:34.799Z,94354.00
2023-04-16T00:40:34.824Z,94358.00
2023-04-16T00:41:34.860Z,94352.00
2023-04-16T00:42:34.905Z,94354.00
2023-04-16T00:43:34.917Z,94356.00
2023-04-16T00:44:34.929Z,94358.00
2023-04-16T00:45:34.961Z,94358.00
2023-04-16T00:46:35.016Z,94358.00
2023-04-16T00:47:35.004Z,94359.00
2023-04-16T00:48:34.987Z,94363.00
2023-04-16T00:49:34.996Z,94365.00
2023-04-16T00:50:34.998Z,94363.00
2023-04-16T00:51:35.003Z,94361.00
2023-04-16T00:52:34.987Z,94361.00
2023-04-16T00:53:35.002Z,94363.00
2023-04-16T00:54:34.980Z,94359.00
2023-04-16T00:55:34.988Z,94359.00
2023-04-16T00:56:35.016Z,94361.00
2023-04-16T00:57:35.014Z,94361.00
2023-04-16T00:58:35.009Z,94363.00
2023-04-16T00:59:34.989Z,94363.00
2023-04-16T01:00:34.992Z,94363.00
2023-04-16T01:01:35.053Z,94363.00
2023-04-16T01:02:35.150Z,94365.00
2023-04-16T01:03:35.102Z,94363.00
2023-04-16T01:04:35.060Z,94365.00
2023-04-16T01:05:35.002Z,94365.00
2023-04-16T01:06:35.047Z,94365.00
2023-04-16T01:07:35.025Z,94373.00
2023-04-16T01:08:35.012Z,94373.00
2023-04-16T01:09:35.000Z,94375.00
2023-04-16T01:10:35.015Z,94375.00
2023-04-16T01:11:35.045Z,94373.00
2023-04-16T01:12:35.040Z,94375.00
2023-04-16T01:13:35.064Z,94373.00
2023-04-16T01:14:35.076Z,94365.00
2023-04-16T01:15:35.138Z,94365.00
2023-04-16T01:16:35.140Z,94365.00
2023-04-16T01:17:35.242Z,94375.00
2023-04-16T01:18:35.208Z,94373.00
2023-04-16T01:19:35.223Z,94377.00
2023-04-16T01:20:35.254Z,94377.00
2023-04-16T01:21:35.283Z,94377.00
2023-04-16T01:22:35.350Z,94375.00
2023-04-16T01:23:35.350Z,94373.00
2023-04-16T01:24:35.388Z,94375.00
2023-04-16T01:25:35.426Z,94375.00
2023-04-16T01:26:35.463Z,94379.00
2023-04-16T01:27:35.471Z,94377.00
2023-04-16T01:28:35.504Z,94377.00
2023-04-16T01:29:35.536Z,94377.00
2023-04-16T01:30:35.550Z,94375.00
2023-04-16T01:31:35.623Z,94377.00
2023-04-16T01:32:35.696Z,94373.00
2023-04-16T01:33:35.641Z,94377.00
2023-04-16T01:34:35.660Z,94377.00
2023-04-16T01:35:35.686Z,94379.00
2023-04-16T01:36:35.690Z,94379.00
2023-04-16T01:37:35.733Z,94379.00
2023-04-16T01:38:35.754Z,94379.00
2023-04-16T01:39:35.798Z,94377.00
2023-04-16T01:40:35.833Z,94377.00
2023-04-16T01:41:35.856Z,94379.00
2023-04-16T01:42:35.907Z,94385.00
2023-04-16T01:43:37.230Z,94387.00
2023-04-16T01:44:35.901Z,94387.00
2023-04-16T01:45:35.897Z,94387.00
2023-04-16T01:46:35.919Z,94387.00
2023-04-16T01:47:35.948Z,94389.00
2023-04-16T01:48:35.884Z,94389.00
2023-04-16T01:49:35.877Z,94389.00
2023-04-16T01:50:35.855Z,94393.00
2023-04-16T01:51:35.857Z,94393.00
2023-04-16T01:52:35.880Z,94391.00
2023-04-16T01:53:37.099Z,94393.00
2023-04-16T01:54:35.826Z,94393.00
2023-04-16T01:55:35.828Z,94395.00
2023-04-16T01:56:35.854Z,94395.00
2023-04-16T01:57:35.806Z,94395.00
2023-04-16T01:58:35.824Z,94395.00
2023-04-16T01:59:35.807Z,94397.00
2023-04-16T02:00:35.819Z,94397.00
2023-04-16T02:01:35.788Z,94393.00
2023-04-16T02:02:35.886Z,94395.00
2023-04-16T02:03:35.920Z,94391.00
2023-04-16T02:04:35.758Z,94393.00
2023-04-16T02:05:35.769Z,94395.00
2023-04-16T02:06:35.764Z,94395.00
2023-04-16T02:07:35.758Z,94393.00
2023-04-16T02:08:35.740Z,94395.00
2023-04-16T02:09:35.727Z,94399.00
2023-04-16T02:10:35.750Z,94399.00
2023-04-16T02:11:35.726Z,94397.00
2023-04-16T02:12:35.711Z,94401.00
2023-04-16T02:13:35.718Z,94401.00
2023-04-16T02:14:35.693Z,94399.00
2023-04-16T02:15:35.688Z,94401.00
2023-04-16T02:16:35.734Z,94403.00
2023-04-16T02:17:35.713Z,94401.00
2023-04-16T02:18:35.668Z,94404.00
2023-04-16T02:19:35.664Z,94404.00
2023-04-16T02:20:35.661Z,94404.00
2023-04-16T02:21:35.635Z,94406.00
2023-04-16T02:22:35.648Z,94408.00
2023-04-16T02:23:35.644Z,94406.00
2023-04-16T02:24:35.620Z,94408.00
2023-04-16T02:25:35.633Z,94410.00
2023-04-16T02:26:35.604Z,94410.00
2023-04-16T02:27:35.611Z,94408.00
2023-04-16T02:28:35.604Z,94406.00
2023-04-16T02:29:35.600Z,94406.00
2023-04-16T02:30:35.574Z,94406.00
2023-04-16T02:31:35.615Z,94406.00
2023-04-16T02:32:35.623Z,94406.00
2023-04-16T02:33:35.572Z,94408.00
2023-04-16T02:34:35.552Z,94408.00
2023-04-16T02:35:35.528Z,94406.00
2023-04-16T02:36:35.548Z,94404.00
2023-04-16T02:37:35.535Z,94406.00
2023-04-16T02:38:35.529Z,94406.00
2023-04-16T02:39:35.526Z,94412.00
2023-04-16T02:40:35.495Z,94406.00
2023-04-16T02:41:35.494Z,94414.00
2023-04-16T02:42:35.537Z,94410.00
2023-04-16T02:43:35.502Z,94412.00
2023-04-16T02:44:35.492Z,94410.00
2023-04-16T02:45:35.502Z,94414.00
2023-04-16T02:46:35.476Z,94414.00
2023-04-16T02:47:35.473Z,94418.00
2023-04-16T02:48:35.469Z,94420.00
2023-04-16T02:49:35.446Z,94420.00
2023-04-16T02:50:35.451Z,94420.00
2023-04-16T02:51:35.429Z,94422.00
2023-04-16T02:52:35.422Z,94422.00
2023-04-16T02:53:35.437Z,94424.00
2023-04-16T02:54:35.442Z,94424.00
2023-04-16T02:55:35.431Z,94422.00
2023-04-16T02:56:35.410Z,94426.00
2023-04-16T02:57:35.414Z,94422.00
2023-04-16T02:58:35.418Z,94422.00
2023-04-16T02:59:35.435Z,94424.00
2023-04-16T03:00:35.448Z,94424.00
2023-04-16T03:01:35.469Z,94424.00
2023-04-16T03:02:35.534Z,94428.00
2023-04-16T03:03:35.463Z,94424.00
2023-04-16T03:04:35.611Z,94426.00
2023-04-16T03:05:35.472Z,94426.00
2023-04-16T03:06:35.478Z,94426.00
2023-04-16T03:07:35.484Z,94426.00
2023-04-16T03:08:35.517Z,94428.00
2023-04-16T03:09:35.499Z,94428.00
2023-04-16T03:10:35.488Z,94428.00
2023-04-16T03:11:35.494Z,94426.00
2023-04-16T03:12:35.540Z,94428.00
2023-04-16T03:13:35.532Z,94428.00
2023-04-16T03:14:35.537Z,94430.00
2023-04-16T03:15:35.573Z,94428.00
2023-04-16T03:16:35.557Z,94428.00
2023-04-16T03:17:35.588Z,94428.00
2023-04-16T03:18:35.590Z,94428.00
2023-04-16T03:19:35.605Z,94432.00
2023-04-16T03:20:35.615Z,94432.00
2023-04-16T03:21:35.645Z,94430.00
2023-04-16T03:22:35.698Z,94432.00
2023-04-16T03:23:35.671Z,94432.00
2023-04-16T03:24:35.697Z,94434.00
2023-04-16T03:25:35.723Z,94434.00
2023-04-16T03:26:35.705Z,94434.00
2023-04-16T03:27:35.728Z,94434.00
2023-04-16T03:28:35.737Z,94436.00
2023-04-16T03:29:35.762Z,94434.00
2023-04-16T03:30:35.769Z,94436.00
2023-04-16T03:31:35.823Z,94432.00
2023-04-16T03:32:35.845Z,94432.00
2023-04-16T03:33:35.822Z,94430.00
2023-04-16T03:34:35.821Z,94434.00
2023-04-16T03:35:35.828Z,94436.00
2023-04-16T03:36:35.839Z,94434.00
2023-04-16T03:37:35.873Z,94438.00
2023-04-16T03:38:35.882Z,94438.00
2023-04-16T03:39:35.877Z,94436.00
2023-04-16T03:40:35.902Z,94434.00
2023-04-16T03:41:35.919Z,94436.00
2023-04-16T03:42:35.959Z,94434.00
2023-04-16T03:43:35.964Z,94434.00
2023-04-16T03:44:35.981Z,94434.00
2023-04-16T03:45:36.001Z,94434.00
2023-04-16T03:46:36.070Z,94436.00
2023-04-16T03:47:36.078Z,94436.00
2023-04-16T03:48:36.098Z,94442.00
2023-04-16T03:49:36.111Z,94438.00
2023-04-16T03:50:36.104Z,94440.00
2023-04-16T03:51:36.152Z,94442.00
2023-04-16T03:52:36.160Z,94444.00
2023-04-16T03:53:36.198Z,94442.00
2023-04-16T03:54:36.207Z,94444.00
2023-04-16T03:55:36.221Z,94442.00
2023-04-16T03:56:36.253Z,94444.00
2023-04-16T03:57:36.257Z,94448.00
2023-04-16T03:58:36.297Z,94446.00
2023-04-16T03:59:36.298Z,94448.00
2023-04-16T04:00:36.318Z,94452.00
2023-04-16T04:01:36.345Z,94448.00
2023-04-16T04:02:36.513Z,94448.00
2023-04-16T04:03:36.678Z,94452.00
2023-04-16T04:04:36.538Z,94452.00
2023-04-16T04:05:36.438Z,94452.00
2023-04-16T04:06:36.464Z,94456.00
2023-04-16T04:07:36.497Z,94456.00
2023-04-16T04:08:36.549Z,94452.00
2023-04-16T04:09:36.542Z,94452.00
2023-04-16T04:10:36.542Z,94452.00
2023-04-16T04:11:36.579Z,94454.00
2023-04-16T04:12:36.588Z,94458.00
2023-04-16T04:13:36.641Z,94456.00
2023-04-16T04:14:36.644Z,94461.00
2023-04-16T04:15:36.643Z,94461.00
2023-04-16T04:16:36.739Z,94461.00
2023-04-16T04:17:36.721Z,94463.00
2023-04-16T04:18:36.723Z,94465.00
2023-04-16T04:20:36.786Z,94467.00
2023-04-16T04:21:36.826Z,94465.00
2023-04-16T04:22:36.869Z,94467.00
2023-04-16T04:23:36.882Z,94467.00
2023-04-16T04:24:36.909Z,94471.00
2023-04-16T04:25:36.956Z,94467.00
2023-04-16T04:26:37.010Z,94465.00
2023-04-16T04:27:37.025Z,94467.00
2023-04-16T04:28:37.041Z,94469.00
2023-04-16T04:29:37.076Z,94471.00
2023-04-16T04:30:37.111Z,94473.00
2023-04-16T04:31:37.163Z,94475.00
2023-04-16T04:32:37.193Z,94475.00
2023-04-16T04:33:37.199Z,94477.00
2023-04-16T04:34:37.232Z,94477.00
2023-04-16T04:35:37.246Z,94479.00
2023-04-16T04:36:37.300Z,94477.00
2023-04-16T04:37:37.343Z,94475.00
2023-04-16T04:38:37.371Z,94473.00
2023-04-16T04:39:37.389Z,94473.00
2023-04-16T04:40:37.414Z,94475.00
2023-04-16T04:41:37.443Z,94475.00
2023-04-16T04:42:37.491Z,94477.00
2023-04-16T04:43:37.501Z,94477.00
2023-04-16T04:44:37.532Z,94481.00
2023-04-16T04:45:37.579Z,94483.00
2023-04-16T04:46:37.560Z,94483.00
2023-04-16T04:47:37.575Z,94483.00
2023-04-16T04:48:37.575Z,94487.00
2023-04-16T04:49:37.619Z,94487.00
2023-04-16T04:50:37.632Z,94489.00
2023-04-16T04:51:37.620Z,94489.00
2023-04-16T04:52:37.677Z,94489.00
2023-04-16T04:53:37.663Z,94489.00
2023-04-16T04:54:37.693Z,94491.00
2023-04-16T04:55:37.694Z,94493.00
2023-04-16T04:56:37.699Z,94493.00
2023-04-16T04:57:37.720Z,94495.00
2023-04-16T04:58:37.724Z,94495.00
2023-04-16T04:59:37.724Z,94495.00
2023-04-16T05:00:37.721Z,94495.00
2023-04-16T05:01:37.803Z,94493.00
2023-04-16T05:02:37.878Z,94491.00
2023-04-16T05:03:37.902Z,94491.00
2023-04-16T05:04:37.830Z,94493.00
2023-04-16T05:05:37.841Z,94491.00
2023-04-16T05:06:37.876Z,94495.00
2023-04-16T05:07:37.923Z,94497.00
2023-04-16T05:08:37.950Z,94497.00
2023-04-16T05:09:37.972Z,94495.00
2023-04-16T05:10:38.004Z,94495.00
2023-04-16T05:11:38.041Z,94491.00
2023-04-16T05:12:38.066Z,94493.00
2023-04-16T05:13:38.104Z,94495.00
2023-04-16T05:14:38.119Z,94493.00
2023-04-16T05:15:38.151Z,94491.00
2023-04-16T05:16:38.193Z,94493.00
2023-04-16T05:17:38.180Z,94497.00
2023-04-16T05:18:38.188Z,94499.00
2023-04-16T05:19:38.178Z,94503.00
2023-04-16T05:20:38.203Z,94501.00
2023-04-16T05:21:38.217Z,94503.00
2023-04-16T05:22:38.215Z,94503.00
2023-04-16T05:23:38.235Z,94506.00
2023-04-16T05:24:38.220Z,94506.00
2023-04-16T05:25:38.250Z,94510.00
2023-04-16T05:26:38.233Z,94510.00
2023-04-16T05:27:38.222Z,94512.00
2023-04-16T05:28:38.220Z,94512.00
2023-04-16T05:29:38.227Z,94512.00
2023-04-16T05:30:38.284Z,94514.00
2023-04-16T05:31:38.320Z,94518.00
2023-04-16T05:32:38.354Z,94520.00
2023-04-16T05:33:38.370Z,94524.00
2023-04-16T05:34:38.394Z,94522.00
2023-04-16T05:35:38.418Z,94522.00
2023-04-16T05:36:38.463Z,94524.00
2023-04-16T05:37:38.492Z,94528.00
2023-04-16T05:38:38.546Z,94532.00
2023-04-16T05:39:38.569Z,94530.00
2023-04-16T05:40:38.589Z,94530.00
2023-04-16T05:41:38.633Z,94530.00
2023-04-16T05:42:38.671Z,94532.00
2023-04-16T05:43:38.697Z,94530.00
2023-04-16T05:44:38.721Z,94534.00
2023-04-16T05:45:38.744Z,94534.00
2023-04-16T05:46:38.828Z,94532.00
2023-04-16T05:47:38.860Z,94534.00
2023-04-16T05:48:38.820Z,94536.00
2023-04-16T05:49:38.841Z,94538.00
2023-04-16T05:50:38.877Z,94534.00
2023-04-16T05:51:38.904Z,94534.00
2023-04-16T05:52:38.932Z,94536.00
2023-04-16T05:53:38.963Z,94538.00
2023-04-16T05:54:39.000Z,94540.00
2023-04-16T05:55:39.025Z,94538.00
2023-04-16T05:56:39.062Z,94538.00
2023-04-16T05:57:39.066Z,94538.00
2023-04-16T05:58:39.117Z,94536.00
2023-04-16T05:59:39.191Z,94538.00
2023-04-16T06:00:39.193Z,94540.00
2023-04-16T06:01:39.239Z,94538.00
2023-04-16T06:02:39.400Z,94546.00
2023-04-16T06:03:39.382Z,94546.00
2023-04-16T06:04:39.348Z,94546.00
2023-04-16T06:05:39.450Z,94548.00
2023-04-16T06:06:39.407Z,94550.00
2023-04-16T06:07:39.457Z,94550.00
2023-04-16T06:08:39.473Z,94552.00
2023-04-16T06:09:39.488Z,94550.00
2023-04-16T06:10:39.463Z,94553.00
2023-04-16T06:11:39.463Z,94553.00
2023-04-16T06:12:39.462Z,94555.00
2023-04-16T06:13:39.474Z,94557.00
2023-04-16T06:14:39.459Z,94557.00
2023-04-16T06:15:39.480Z,94555.00
2023-04-16T06:16:39.473Z,94555.00
2023-04-16T06:17:39.473Z,94555.00
2023-04-16T06:18:39.469Z,94561.00
2023-04-16T06:19:39.471Z,94561.00
2023-04-16T06:20:39.469Z,94561.00
2023-04-16T06:21:39.460Z,94561.00
2023-04-16T06:22:39.472Z,94563.00
2023-04-16T06:23:39.478Z,94559.00
2023-04-16T06:24:39.483Z,94561.00
2023-04-16T06:25:39.466Z,94561.00
2023-04-16T06:26:39.505Z,94557.00
2023-04-16T06:27:39.473Z,94557.00
2023-04-16T06:28:39.497Z,94561.00
2023-04-16T06:29:41.565Z,94559.00
2023-04-16T06:30:39.521Z,94559.00
2023-04-16T06:31:39.583Z,94561.00
2023-04-16T06:32:39.580Z,94557.00
2023-04-16T06:33:39.533Z,94563.00
2023-04-16T06:34:39.540Z,94565.00
2023-04-16T06:35:39.516Z,94563.00
2023-04-16T06:36:39.522Z,94563.00
2023-04-16T06:37:39.538Z,94565.00
2023-04-16T06:38:39.532Z,94565.00
2023-04-16T06:39:39.531Z,94565.00
2023-04-16T06:40:39.560Z,94567.00
2023-04-16T06:41:39.564Z,94569.00
2023-04-16T06:42:39.594Z,94569.00
2023-04-16T06:43:39.599Z,94571.00
2023-04-16T06:44:39.656Z,94567.00
2023-04-16T06:45:39.675Z,94571.00
2023-04-16T06:46:39.758Z,94569.00
2023-04-16T06:47:39.730Z,94567.00
2023-04-16T06:48:39.778Z,94565.00
2023-04-16T06:49:39.787Z,94565.00
2023-04-16T06:50:39.812Z,94571.00
2023-04-16T06:51:39.788Z,94567.00
2023-04-16T06:52:39.812Z,94567.00
2023-04-16T06:53:39.809Z,94565.00
2023-04-16T06:54:39.803Z,94567.00
2023-04-16T06:55:39.815Z,94565.00
2023-04-16T06:56:39.834Z,94569.00
2023-04-16T06:57:39.826Z,94569.00
2023-04-16T06:58:39.850Z,94569.00
2023-04-16T06:59:39.846Z,94567.00
2023-04-16T07:00:39.883Z,94569.00
2023-04-16T07:01:39.841Z,94571.00
2023-04-16T07:02:40.000Z,94571.00
2023-04-16T07:03:40.084Z,94567.00
2023-04-16T07:04:39.906Z,94567.00
2023-04-16T07:05:40.222Z,94569.00
2023-04-16T07:06:39.915Z,94567.00
2023-04-16T07:07:39.903Z,94563.00
2023-04-16T07:08:39.918Z,94569.00
2023-04-16T07:09:39.905Z,94569.00
2023-04-16T07:10:39.919Z,94565.00
2023-04-16T07:11:39.926Z,94567.00
2023-04-16T07:12:39.929Z,94565.00
2023-04-16T07:13:39.934Z,94567.00
2023-04-16T07:14:39.936Z,94563.00
2023-04-16T07:15:39.973Z,94565.00
2023-04-16T07:16:40.007Z,94565.00
2023-04-16T07:17:40.031Z,94567.00
2023-04-16T07:18:40.058Z,94569.00
2023-04-16T07:19:40.086Z,94567.00
2023-04-16T07:20:40.093Z,94563.00
2023-04-16T07:21:40.111Z,94565.00
2023-04-16T07:22:40.150Z,94567.00
2023-04-16T07:23:40.202Z,94567.00
2023-04-16T07:24:40.198Z,94567.00
2023-04-16T07:25:40.236Z,94567.00
2023-04-16T07:26:40.261Z,94567.00
2023-04-16T07:27:40.273Z,94567.00
2023-04-16T07:28:40.322Z,94565.00
2023-04-16T07:29:40.337Z,94567.00
2023-04-16T07:30:40.379Z,94569.00
2023-04-16T07:31:40.466Z,94571.00
2023-04-16T07:32:40.490Z,94567.00
2023-04-16T07:33:40.537Z,94571.00
2023-04-16T07:34:40.590Z,94571.00
2023-04-16T07:35:40.641Z,94575.00
2023-04-16T07:36:40.697Z,94573.00
2023-04-16T07:37:40.737Z,94575.00
2023-04-16T07:38:40.790Z,94575.00
2023-04-16T07:39:40.813Z,94579.00
2023-04-16T07:40:40.847Z,94583.00
2023-04-16T07:41:40.898Z,94579.00
2023-04-16T07:42:40.932Z,94583.00
2023-04-16T07:43:40.988Z,94583.00
2023-04-16T07:44:41.057Z,94581.00
2023-04-16T07:45:41.469Z,94581.00
2023-04-16T07:46:47.100Z,94585.00
2023-04-16T07:47:42.184Z,94587.00
2023-04-16T07:48:41.125Z,94587.00
2023-04-16T07:49:41.108Z,94583.00
2023-04-16T07:50:41.114Z,94585.00
2023-04-16T07:51:41.151Z,94585.00
2023-04-16T07:52:41.100Z,94583.00
2023-04-16T07:53:41.080Z,94587.00
2023-04-16T07:54:41.071Z,94583.00
2023-04-16T07:55:41.097Z,94589.00
2023-04-16T07:56:41.103Z,94589.00
2023-04-16T07:57:41.169Z,94587.00
2023-04-16T07:58:41.237Z,94585.00
2023-04-16T07:59:41.307Z,94591.00
2023-04-16T08:00:41.327Z,94587.00
2023-04-16T08:01:41.363Z,94587.00
2023-04-16T08:02:41.497Z,94585.00
2023-04-16T08:03:41.603Z,94587.00
2023-04-16T08:04:41.799Z,94589.00
2023-04-16T08:05:41.503Z,94589.00
2023-04-16T08:06:41.527Z,94587.00
2023-04-16T08:07:41.584Z,94589.00
2023-04-16T08:08:41.603Z,94589.00
2023-04-16T08:09:41.655Z,94585.00
2023-04-16T08:10:41.653Z,94589.00
2023-04-16T08:11:41.670Z,94589.00
2023-04-16T08:12:41.703Z,94591.00
2023-04-16T08:13:41.744Z,94591.00
2023-04-16T08:14:41.736Z,94591.00
2023-04-16T08:15:41.785Z,94591.00
2023-04-16T08:16:41.786Z,94591.00
2023-04-16T08:17:41.843Z,94589.00
2023-04-16T08:18:41.865Z,94593.00
2023-04-16T08:19:41.920Z,94595.00
2023-04-16T08:20:41.921Z,94595.00
2023-04-16T08:21:41.941Z,94601.00
2023-04-16T08:22:41.968Z,94599.00
2023-04-16T08:23:41.985Z,94599.00
2023-04-16T08:24:42.038Z,94603.00
2023-04-16T08:25:42.128Z,94605.00
2023-04-16T08:26:42.109Z,94603.00
2023-04-16T08:27:42.129Z,94605.00
2023-04-16T08:28:42.141Z,94607.00
2023-04-16T08:29:42.157Z,94605.00
2023-04-16T08:30:42.180Z,94605.00
2023-04-16T08:31:42.260Z,94607.00
2023-04-16T08:32:42.291Z,94610.00
2023-04-16T08:33:42.258Z,94610.00
2023-04-16T08:34:42.307Z,94608.00
2023-04-16T08:35:42.323Z,94612.00
2023-04-16T08:36:42.315Z,94612.00
2023-04-16T08:37:42.312Z,94614.00
2023-04-16T08:38:42.325Z,94614.00
2023-04-16T08:39:42.356Z,94614.00
2023-04-16T08:40:42.354Z,94616.00
2023-04-16T08:41:42.381Z,94614.00
2023-04-16T08:42:42.368Z,94614.00
2023-04-16T08:43:42.353Z,94614.00
2023-04-16T08:44:42.440Z,94614.00
2023-04-16T08:45:42.452Z,94612.00
2023-04-16T08:46:43.300Z,94616.00
2023-04-16T08:47:42.554Z,94618.00
2023-04-16T08:48:42.605Z,94616.00
2023-04-16T08:49:42.612Z,94618.00
2023-04-16T08:50:42.673Z,94618.00
2023-04-16T08:51:42.677Z,94622.00
2023-04-16T08:52:42.745Z,94620.00
2023-04-16T08:53:42.800Z,94620.00
2023-04-16T08:54:42.865Z,94618.00
2023-04-16T08:55:42.932Z,94630.00
2023-04-16T08:56:43.282Z,94630.00
2023-04-16T08:57:43.021Z,94622.00
2023-04-16T08:58:43.074Z,94622.00
2023-04-16T08:59:43.133Z,94630.00
2023-04-16T09:00:43.204Z,94634.00
2023-04-16T09:01:43.298Z,94632.00
2023-04-16T09:02:43.458Z,94632.00
2023-04-16T09:03:43.566Z,94636.00
2023-04-16T09:04:43.520Z,94634.00
2023-04-16T09:05:43.534Z,94636.00
2023-04-16T09:06:43.612Z,94636.00
2023-04-16T09:07:43.640Z,94636.00
2023-04-16T09:08:43.701Z,94638.00
2023-04-16T09:09:43.752Z,94634.00
2023-04-16T09:10:43.833Z,94646.00
2023-04-16T09:11:43.879Z,94640.00
2023-04-16T09:12:43.959Z,94640.00
2023-04-16T09:13:44.003Z,94640.00
2023-04-16T09:14:44.125Z,94644.00
2023-04-16T09:15:44.129Z,94644.00
2023-04-16T09:16:44.314Z,94642.00
2023-04-16T09:17:44.330Z,94640.00
2023-04-16T09:18:44.338Z,94638.00
2023-04-16T09:19:44.402Z,94640.00
2023-04-16T09:20:44.463Z,94646.00
2023-04-16T09:21:44.509Z,94646.00
2023-04-16T09:22:44.567Z,94646.00
2023-04-16T09:23:44.657Z,94648.00
2023-04-16T09:24:44.732Z,94648.00
2023-04-16T09:25:44.760Z,94648.00
2023-04-16T09:26:44.837Z,94644.00
2023-04-16T09:27:44.872Z,94646.00
2023-04-16T09:28:44.927Z,94642.00
2023-04-16T09:29:44.997Z,94644.00
2023-04-16T09:30:45.060Z,94644.00
2023-04-16T09:31:45.146Z,94642.00
2023-04-16T09:32:45.177Z,94642.00
2023-04-16T09:33:45.246Z,94642.00
2023-04-16T09:34:45.275Z,94644.00
2023-04-16T09:35:45.381Z,94648.00
2023-04-16T09:36:45.387Z,94644.00
2023-04-16T09:37:45.401Z,94644.00
2023-04-16T09:38:45.426Z,94644.00
2023-04-16T09:39:45.439Z,94638.00
2023-04-16T09:40:45.436Z,94640.00
2023-04-16T09:41:45.426Z,94640.00
2023-04-16T09:42:45.460Z,94640.00
2023-04-16T09:43:45.477Z,94640.00
2023-04-16T09:44:45.511Z,94638.00
2023-04-16T09:45:45.561Z,94640.00
2023-04-16T09:46:45.598Z,94638.00
2023-04-16T09:47:45.704Z,94638.00
2023-04-16T09:48:45.747Z,94640.00
2023-04-16T09:49:45.785Z,94640.00
2023-04-16T09:50:45.836Z,94646.00
2023-04-16T09:51:45.872Z,94642.00
2023-04-16T09:52:45.934Z,94646.00
2023-04-16T09:53:45.971Z,94642.00
2023-04-16T09:54:45.992Z,94642.00
2023-04-16T09:55:46.886Z,94640.00
2023-04-16T09:56:46.075Z,94640.00
2023-04-16T09:57:46.086Z,94638.00
2023-04-16T09:58:46.106Z,94642.00
2023-04-16T09:59:46.098Z,94640.00
2023-04-16T10:00:46.130Z,94640.00
2023-04-16T10:01:46.190Z,94638.00
2023-04-16T10:02:47.972Z,94640.00
2023-04-16T10:03:46.265Z,94636.00
2023-04-16T10:04:46.212Z,94642.00
2023-04-16T10:05:46.155Z,94644.00
2023-04-16T10:06:46.123Z,94640.00
2023-04-16T10:07:46.145Z,94646.00
2023-04-16T10:08:47.320Z,94644.00
2023-04-16T10:09:46.101Z,94646.00
2023-04-16T10:10:46.094Z,94644.00
2023-04-16T10:11:46.108Z,94644.00
2023-04-16T10:12:46.097Z,94640.00
2023-04-16T10:13:46.086Z,94642.00
2023-04-16T10:14:46.912Z,94640.00
2023-04-16T10:15:46.066Z,94638.00
2023-04-16T10:16:46.144Z,94638.00
2023-04-16T10:17:46.093Z,94638.00
2023-04-16T10:18:46.080Z,94638.00
2023-04-16T10:19:46.102Z,94634.00
2023-04-16T10:20:46.090Z,94622.00
2023-04-16T10:21:46.082Z,94630.00
2023-04-16T10:22:46.111Z,94630.00
2023-04-16T10:23:46.097Z,94634.00
2023-04-16T10:24:46.158Z,94630.00
2023-04-16T10:25:46.138Z,94630.00
2023-04-16T10:26:46.141Z,94630.00
2023-04-16T10:27:46.136Z,94630.00
2023-04-16T10:28:46.132Z,94634.00
2023-04-16T10:29:46.182Z,94634.00
2023-04-16T10:30:46.172Z,94620.00
2023-04-16T10:31:46.219Z,94620.00
2023-04-16T10:32:46.286Z,94620.00
2023-04-16T10:33:46.231Z,94620.00
2023-04-16T10:34:46.271Z,94616.00
2023-04-16T10:35:52.410Z,94620.00
2023-04-16T10:36:47.325Z,94618.00
2023-04-16T10:37:46.314Z,94622.00
2023-04-16T10:38:46.283Z,94618.00
2023-04-16T10:39:46.266Z,94620.00
2023-04-16T10:40:46.249Z,94622.00
2023-04-16T10:41:46.248Z,94630.00
2023-04-16T10:42:46.254Z,94622.00
2023-04-16T10:43:46.297Z,94620.00
2023-04-16T10:44:46.311Z,94622.00
2023-04-16T10:45:46.404Z,94622.00
2023-04-16T10:46:46.407Z,94622.00
2023-04-16T10:47:46.500Z,94620.00
2023-04-16T10:48:50.082Z,94618.00
2023-04-16T10:49:46.504Z,94618.00
2023-04-16T10:50:46.490Z,94618.00
2023-04-16T10:51:46.488Z,94620.00
2023-04-16T10:52:46.469Z,94620.00
2023-04-16T10:53:46.479Z,94622.00
2023-04-16T10:54:46.474Z,94620.00
2023-04-16T10:55:46.471Z,94620.00
2023-04-16T10:56:46.463Z,94622.00
2023-04-16T10:57:46.462Z,94620.00
2023-04-16T10:58:46.427Z,94620.00
2023-04-16T10:59:46.443Z,94630.00
2023-04-16T11:00:46.417Z,94632.00
2023-04-16T11:01:46.431Z,94618.00
2023-04-16T11:02:46.588Z,94618.00
2023-04-16T11:03:46.532Z,94616.00
2023-04-16T11:04:46.552Z,94618.00
2023-04-16T11:05:46.412Z,94620.00
2023-04-16T11:06:46.372Z,94616.00
2023-04-16T11:07:46.386Z,94620.00
2023-04-16T11:09:46.373Z,94616.00
2023-04-16T11:10:46.359Z,94616.00
2023-04-16T11:11:46.365Z,94616.00
2023-04-16T11:12:46.358Z,94612.00
2023-04-16T11:13:46.373Z,94614.00
2023-04-16T11:14:46.328Z,94620.00
2023-04-16T11:15:46.350Z,94612.00
2023-04-16T11:16:46.333Z,94612.00
2023-04-16T11:17:46.372Z,94616.00
2023-04-16T11:18:51.605Z,94614.00
2023-04-16T11:19:47.321Z,94616.00
2023-04-16T11:20:46.297Z,94622.00
2023-04-16T11:21:46.279Z,94614.00
2023-04-16T11:22:46.298Z,94614.00
2023-04-16T11:23:46.276Z,94622.00
2023-04-16T11:24:46.290Z,94620.00
2023-04-16T11:25:46.271Z,94614.00
2023-04-16T11:26:46.270Z,94614.00
2023-04-16T11:27:46.268Z,94614.00
2023-04-16T11:28:46.251Z,94616.00
2023-04-16T11:29:47.606Z,94630.00
2023-04-16T11:30:46.314Z,94618.00
2023-04-16T11:31:46.369Z,94620.00
2023-04-16T11:32:46.401Z,94618.00
2023-04-16T11:33:46.430Z,94632.00
2023-04-16T11:34:46.457Z,94618.00
2023-04-16T11:35:46.559Z,94618.00
2023-04-16T11:36:46.566Z,94616.00
2023-04-16T11:37:46.635Z,94618.00
2023-04-16T11:38:46.692Z,94632.00
2023-04-16T11:39:46.718Z,94632.00
2023-04-16T11:40:46.740Z,94630.00
2023-04-16T11:41:46.788Z,94614.00
2023-04-16T11:42:46.856Z,94622.00
2023-04-16T11:43:46.886Z,94620.00
2023-04-16T11:44:46.927Z,94620.00
2023-04-16T11:45:46.968Z,94622.00
2023-04-16T11:46:47.062Z,94622.00